Olmida — ZCNU4 — position and weather

sailwx.info

Track history (hours):
 
Tides and Currents Weather Stations Pressure Air Temp Water Temp Dewpoint Dewpoint Depression Visibility Wind Speed Wind Dir Waves Ship Positions

Olmida

Last reported at 2016-Aug-20 13:32 UTC. Time now 2016-Aug-24 16:14 UTC.
Position N 43°44' E 007°26'.

; draft 3.2 m.

Type: Pleasure craft. MMSI: 319196000.

Date/timePositionNaut miles runAvg speedWind from/ knotsBaromVisibWave heightAir tempDewpointWater temp
2016-Aug-20 13:32N 43°44' E 007°26'  
2016-Aug-17 17:33N 43°42' E 007°24'1515.1
2016-Aug-17 16:33N 43°32' E 007°09'28 1.2
2016-Aug-16 16:26N 43°14' E 006°40'0 0.0
2016-Aug-16 15:33N 43°14' E 006°40'0 0.0
2016-Aug-16 14:33N 43°14' E 006°40'0 0.0
2016-Aug-16 13:33N 43°14' E 006°40'0 0.0
2016-Aug-16 12:33N 43°14' E 006°40'0 0.0
2016-Aug-16 11:33N 43°14' E 006°40'0 0.0
2016-Aug-16 10:29N 43°14' E 006°40'2 1.4
2016-Aug-16 09:21N 43°14' E 006°42'31 5.3
2016-Aug-16 03:34N 42°46' E 006°27'1412.6
2016-Aug-16 02:26N 42°34' E 006°16'4113.4
2016-Aug-15 23:23N 41°57' E 005°51'2713.1
2016-Aug-15 21:19N 41°34' E 005°33'15812.3
2016-Aug-15 08:30N 39°26' E 003°31'1212.4
2016-Aug-15 07:32N 39°21' E 003°18'1212.3
2016-Aug-15 06:33N 39°15' E 003°04'6 2.9
2016-Aug-15 04:23N 39°20' E 002°59'0 0.0
2016-Aug-15 03:29N 39°20' E 002°59'0 0.0
2016-Aug-15 02:29N 39°20' E 002°59'0 0.0
2016-Aug-15 01:32N 39°20' E 002°59'0 0.0
2016-Aug-15 00:05N 39°20' E 002°59'0 0.0
2016-Aug-14 23:29N 39°20' E 002°59'0 0.0
2016-Aug-14 22:28N 39°20' E 002°59'0 0.0
2016-Aug-14 21:13N 39°20' E 002°59'0 0.0
2016-Aug-14 20:28N 39°20' E 002°59'0 0.0
2016-Aug-14 19:31N 39°20' E 002°59'0 0.0
2016-Aug-14 18:22N 39°20' E 002°59'0 0.0
2016-Aug-14 17:31N 39°20' E 002°59'0 0.0
2016-Aug-14 16:28N 39°20' E 002°59'0 0.0
2016-Aug-14 15:31N 39°20' E 002°59'0 0.0
2016-Aug-14 14:22N 39°20' E 002°59'0 0.0
2016-Aug-14 13:31N 39°20' E 002°59'0 0.0
2016-Aug-14 12:30N 39°20' E 002°59'0 0.0
2016-Aug-14 11:33N 39°20' E 002°59'8 7.6
2016-Aug-14 10:33N 39°18' E 002°49'1413.8
2016-Aug-14 09:34N 39°15' E 002°32'1313.4
2016-Aug-14 08:33N 39°12' E 002°15'1212.5
2016-Aug-14 07:33N 39°08' E 002°00'1111.3
2016-Aug-14 06:33N 39°02' E 001°48'  
Track history (hours):
 
Tides and Currents Weather Stations Pressure Air Temp Water Temp Dewpoint Dewpoint Depression Visibility Wind Speed Wind Dir Waves Ship Positions

Olmida

Last reported at 2016-Aug-20 13:32 UTC. Time now 2016-Aug-24 16:14 UTC.
Position N 43°44' E 007°26'.

; draft 3.2 m.

Type: Pleasure craft. MMSI: 319196000.

Date/timePositionNaut miles runAvg speedWind from/ knotsBaromVisibWave heightAir tempDewpointWater temp
2016-Aug-20 13:32N 43°44' E 007°26'  
2016-Aug-17 17:33N 43°42' E 007°24'1515.1
2016-Aug-17 16:33N 43°32' E 007°09'28 1.2
2016-Aug-16 16:26N 43°14' E 006°40'0 0.0
2016-Aug-16 15:33N 43°14' E 006°40'0 0.0
2016-Aug-16 14:33N 43°14' E 006°40'0 0.0
2016-Aug-16 13:33N 43°14' E 006°40'0 0.0
2016-Aug-16 12:33N 43°14' E 006°40'0 0.0
2016-Aug-16 11:33N 43°14' E 006°40'0 0.0
2016-Aug-16 10:29N 43°14' E 006°40'2 1.4
2016-Aug-16 09:21N 43°14' E 006°42'31 5.3
2016-Aug-16 03:34N 42°46' E 006°27'1412.6
2016-Aug-16 02:26N 42°34' E 006°16'4113.4
2016-Aug-15 23:23N 41°57' E 005°51'2713.1
2016-Aug-15 21:19N 41°34' E 005°33'15812.3
2016-Aug-15 08:30N 39°26' E 003°31'1212.4
2016-Aug-15 07:32N 39°21' E 003°18'1212.3
2016-Aug-15 06:33N 39°15' E 003°04'6 2.9
2016-Aug-15 04:23N 39°20' E 002°59'0 0.0
2016-Aug-15 03:29N 39°20' E 002°59'0 0.0
2016-Aug-15 02:29N 39°20' E 002°59'0 0.0
2016-Aug-15 01:32N 39°20' E 002°59'0 0.0
2016-Aug-15 00:05N 39°20' E 002°59'0 0.0
2016-Aug-14 23:29N 39°20' E 002°59'0 0.0
2016-Aug-14 22:28N 39°20' E 002°59'0 0.0
2016-Aug-14 21:13N 39°20' E 002°59'0 0.0
2016-Aug-14 20:28N 39°20' E 002°59'0 0.0
2016-Aug-14 19:31N 39°20' E 002°59'0 0.0
2016-Aug-14 18:22N 39°20' E 002°59'0 0.0
2016-Aug-14 17:31N 39°20' E 002°59'0 0.0
2016-Aug-14 16:28N 39°20' E 002°59'0 0.0
2016-Aug-14 15:31N 39°20' E 002°59'0 0.0
2016-Aug-14 14:22N 39°20' E 002°59'0 0.0
2016-Aug-14 13:31N 39°20' E 002°59'0 0.0
2016-Aug-14 12:30N 39°20' E 002°59'0 0.0
2016-Aug-14 11:33N 39°20' E 002°59'8 7.6
2016-Aug-14 10:33N 39°18' E 002°49'1413.8
2016-Aug-14 09:34N 39°15' E 002°32'1313.4
2016-Aug-14 08:33N 39°12' E 002°15'1212.5
2016-Aug-14 07:33N 39°08' E 002°00'1111.3
2016-Aug-14 06:33N 39°02' E 001°48'  

Dump ship's entire track history